Colfax, North Dakota
Current Conditions -  °F | °C
As of 2:15 AM on Tuesday 27 Jan 2015 (Local Time) from KBWP Reporting Station
Overcast Overcast  
Wind Chill: 28°   Ceiling: 700
Heat Index: 28°   Visibility: 7mi
Dew Point: 27°   Wind: 0mph
Humidity: 93%   Direction: NA
Pressure: 30.06"   Gusts: NA
Location:  46.47°N, 96.87°W
Report Text: KBWP 270815Z AUTO 00000KT 7SM OVC007 M02/M03 A3006 RMK AO1
Loading
Personal Weather Stations






























Interactive Weather Map New forecast layout! Learn more

10-Day Weather Forecast

Advertisements
Track Severe Weather on mobile